Time;durP1;ratioP1;P1;durP2;ratioP2;P2;SDS_P1;SDS_P2;PMS_P1;PMS_P2;Temp;Humidity;BMP_temperature;BMP_pressure;BME280_temperature;BME280_humidity;BME280_pressure;Samples;Min_cycle;Max_cycle;Signal;HPM_P1;HPM_P2
2023/10/24 00:02:09;;;;;;;9.77;9.57;;;12.30;99.90;;;;;;5024729;28;20456;-70
2023/10/24 00:04:36;;;;;;;9.03;8.83;;;12.30;99.90;;;;;;5011027;28;20515;-70
2023/10/24 00:07:03;;;;;;;9.30;9.10;;;12.30;99.90;;;;;;5017044;28;20556;-69
2023/10/24 00:09:30;;;;;;;9.80;9.60;;;12.40;99.90;;;;;;5012099;28;20517;-70
2023/10/24 00:11:57;;;;;;;9.33;9.13;;;12.40;99.90;;;;;;5020772;28;20502;-70
2023/10/24 00:14:24;;;;;;;9.80;9.60;;;12.40;99.90;;;;;;5023708;28;20458;-71
2023/10/24 00:16:51;;;;;;;9.40;9.20;;;12.40;99.90;;;;;;5020878;28;20496;-70
2023/10/24 00:19:19;;;;;;;9.77;9.57;;;12.40;99.90;;;;;;5018438;28;20499;-70
2023/10/24 00:21:46;;;;;;;9.53;9.33;;;12.50;99.90;;;;;;5018357;28;20525;-72
2023/10/24 00:24:14;;;;;;;10.30;10.10;;;12.50;99.90;;;;;;5013690;27;20478;-70
2023/10/24 00:26:41;;;;;;;9.13;8.93;;;12.50;99.90;;;;;;5024369;27;20827;-70
2023/10/24 00:29:08;;;;;;;9.00;8.80;;;12.50;99.90;;;;;;5026887;28;20553;-71
2023/10/24 00:31:35;;;;;;;9.00;8.80;;;12.50;99.90;;;;;;5026919;27;20469;-70
2023/10/24 00:34:02;;;;;;;8.67;8.57;;;12.50;99.90;;;;;;5026294;27;20473;-69
2023/10/24 00:36:30;;;;;;;9.20;9.00;;;12.60;99.90;;;;;;5017767;27;20569;-70
2023/10/24 00:38:57;;;;;;;9.00;8.80;;;12.60;99.90;;;;;;5024505;27;20485;-71
2023/10/24 00:41:24;;;;;;;9.00;8.80;;;12.60;99.90;;;;;;5023114;27;20814;-69
2023/10/24 00:43:51;;;;;;;9.50;9.30;;;12.60;99.90;;;;;;5022246;27;20575;-71
2023/10/24 00:46:18;;;;;;;8.70;8.60;;;12.60;99.90;;;;;;5024394;27;20539;-71
2023/10/24 00:48:45;;;;;;;8.77;8.67;;;12.70;99.90;;;;;;5026987;28;20457;-68
2023/10/24 00:51:12;;;;;;;9.23;9.03;;;12.70;99.90;;;;;;5015685;27;20519;-70
2023/10/24 00:53:41;;;;;;;9.23;9.03;;;12.80;99.90;;;;;;5016987;28;20841;-70
2023/10/24 00:56:09;;;;;;;9.10;8.90;;;12.80;99.90;;;;;;5026235;27;20504;-70
2023/10/24 00:58:39;;;;;;;9.60;9.40;;;12.80;99.90;;;;;;5027492;27;20479;-69
2023/10/24 01:01:10;;;;;;;8.97;8.80;;;12.90;99.90;;;;;;5021638;27;20504;-69
2023/10/24 01:03:38;;;;;;;9.30;9.10;;;12.90;99.90;;;;;;5018120;27;20477;-71
2023/10/24 01:06:07;;;;;;;8.67;8.57;;;12.90;99.90;;;;;;5024567;27;20514;-69
2023/10/24 01:08:35;;;;;;;9.40;9.20;;;12.90;99.90;;;;;;5014747;27;20505;-70
2023/10/24 01:11:03;;;;;;;9.37;9.17;;;13.00;99.90;;;;;;5026990;27;20489;-69
2023/10/24 01:13:31;;;;;;;8.60;8.50;;;13.00;99.90;;;;;;5017762;27;20473;-71
2023/10/24 01:15:57;;;;;;;8.53;8.43;;;13.00;99.90;;;;;;5025765;27;20576;-69
2023/10/24 01:18:24;;;;;;;8.73;8.63;;;13.00;99.90;;;;;;5016921;27;20464;-69
2023/10/24 01:20:51;;;;;;;8.57;8.47;;;13.00;99.90;;;;;;5019994;27;20464;-69
2023/10/24 01:23:20;;;;;;;8.43;8.33;;;13.10;99.90;;;;;;5017776;27;20516;-69
2023/10/24 01:25:49;;;;;;;8.43;8.33;;;13.20;99.90;;;;;;5016895;27;20483;-70
2023/10/24 01:28:16;;;;;;;8.03;7.93;;;13.10;99.90;;;;;;5021651;27;20490;-71
2023/10/24 01:30:43;;;;;;;7.63;7.53;;;13.20;99.90;;;;;;5020644;27;20493;-69
2023/10/24 01:33:10;;;;;;;7.90;7.80;;;13.20;99.90;;;;;;5014254;27;20546;-69
2023/10/24 01:35:36;;;;;;;7.10;7.00;;;13.20;99.90;;;;;;5025444;27;20905;-71
2023/10/24 01:38:05;;;;;;;7.43;7.33;;;13.20;99.90;;;;;;5027568;27;20492;-69
2023/10/24 01:40:33;;;;;;;6.93;6.83;;;13.20;99.90;;;;;;5025245;27;20983;-71
2023/10/24 01:43:00;;;;;;;6.90;6.80;;;13.20;99.90;;;;;;5020451;27;20498;-70
2023/10/24 01:45:27;;;;;;;6.83;6.73;;;13.20;99.90;;;;;;5019371;27;20484;-71
2023/10/24 01:47:55;;;;;;;6.90;6.80;;;13.10;99.90;;;;;;5018888;28;20865;-71
2023/10/24 01:50:22;;;;;;;7.30;7.20;;;13.10;99.90;;;;;;5022543;27;20518;-69
2023/10/24 01:52:49;;;;;;;6.67;6.57;;;13.10;99.90;;;;;;5025397;28;20464;-70
2023/10/24 01:55:16;;;;;;;7.10;7.00;;;13.10;99.90;;;;;;5021271;27;20826;-69
2023/10/24 01:57:44;;;;;;;7.37;7.27;;;13.20;99.90;;;;;;5026014;27;20504;-70
2023/10/24 02:00:12;;;;;;;7.33;7.23;;;13.20;99.90;;;;;;5018200;27;20493;-70
2023/10/24 02:02:39;;;;;;;7.97;7.87;;;13.10;99.90;;;;;;5020143;27;20465;-70
2023/10/24 02:05:06;;;;;;;8.00;7.90;;;13.10;99.90;;;;;;5014514;28;20456;-70
2023/10/24 02:07:34;;;;;;;7.80;7.70;;;13.10;99.90;;;;;;5022776;27;20523;-69
2023/10/24 02:10:03;;;;;;;7.80;7.70;;;13.10;99.90;;;;;;5044711;27;20458;-70
2023/10/24 02:12:30;;;;;;;8.20;8.10;;;13.10;99.90;;;;;;5017726;27;20895;-71
2023/10/24 02:14:59;;;;;;;8.30;8.20;;;13.10;99.90;;;;;;5025576;27;20762;-70
2023/10/24 02:17:26;;;;;;;8.63;8.53;;;13.10;99.90;;;;;;5024835;28;20474;-69
2023/10/24 02:19:53;;;;;;;8.47;8.37;;;13.10;99.90;;;;;;5019888;28;20477;-69
2023/10/24 02:22:20;;;;;;;8.47;8.37;;;13.00;99.90;;;;;;5022448;27;20453;-70
2023/10/24 02:24:48;;;;;;;8.50;8.40;;;13.10;99.90;;;;;;5017526;28;20484;-71
2023/10/24 02:27:15;;;;;;;8.17;8.07;;;13.10;99.90;;;;;;5026045;27;20536;-70
2023/10/24 02:29:41;;;;;;;8.40;8.30;;;13.10;99.90;;;;;;5017466;28;20469;-71
2023/10/24 02:32:10;;;;;;;8.53;8.43;;;13.20;99.90;;;;;;5025085;27;20469;-69
2023/10/24 02:34:37;;;;;;;7.80;7.70;;;13.20;99.90;;;;;;5019853;27;20490;-71
2023/10/24 02:37:04;;;;;;;8.20;8.10;;;13.20;99.90;;;;;;5021564;27;20497;-69
2023/10/24 02:39:30;;;;;;;8.50;8.40;;;13.20;99.90;;;;;;5018375;27;20484;-70
2023/10/24 02:42:00;;;;;;;7.53;7.43;;;13.20;99.90;;;;;;5018452;27;20475;-70
2023/10/24 02:44:27;;;;;;;7.83;7.73;;;13.20;99.90;;;;;;5021370;27;20477;-70
2023/10/24 02:46:53;;;;;;;7.93;7.83;;;13.20;99.90;;;;;;5016620;27;20470;-70
2023/10/24 02:49:22;;;;;;;8.20;8.10;;;13.20;99.90;;;;;;5012867;28;20470;-69
2023/10/24 02:51:49;;;;;;;7.60;7.50;;;13.20;99.90;;;;;;5020984;27;20473;-69
2023/10/24 02:54:31;;;;;;;7.67;7.57;;;13.20;99.90;;;;;;5041936;28;20452;-71
2023/10/24 02:56:58;;;;;;;8.17;8.07;;;13.20;99.90;;;;;;5019986;27;20542;-71
2023/10/24 02:59:24;;;;;;;7.17;7.07;;;13.10;99.90;;;;;;5015728;28;20535;-71
2023/10/24 03:01:51;;;;;;;7.67;7.57;;;13.10;99.90;;;;;;5012612;27;20823;-70
2023/10/24 03:04:18;;;;;;;7.60;7.50;;;13.10;99.90;;;;;;5024914;27;20457;-69
2023/10/24 03:06:46;;;;;;;7.50;7.40;;;13.10;99.90;;;;;;5024476;27;20503;-69
2023/10/24 03:09:12;;;;;;;7.27;7.17;;;13.00;99.90;;;;;;5019317;28;20948;-71
2023/10/24 03:11:39;;;;;;;7.67;7.57;;;13.00;99.90;;;;;;5018670;27;20493;-70
2023/10/24 03:14:06;;;;;;;8.07;7.97;;;13.00;99.90;;;;;;5022036;27;20461;-70
2023/10/24 03:16:35;;;;;;;7.53;7.43;;;13.00;99.90;;;;;;5017655;27;20512;-70
2023/10/24 03:19:02;;;;;;;7.87;7.77;;;13.00;99.90;;;;;;5018517;28;20457;-70
2023/10/24 03:21:29;;;;;;;7.33;7.23;;;13.00;99.90;;;;;;5023928;27;20453;-69
2023/10/24 03:23:58;;;;;;;7.43;7.33;;;13.00;99.90;;;;;;5021518;27;20472;-69
2023/10/24 03:26:24;;;;;;;7.43;7.33;;;13.00;99.90;;;;;;5013946;27;20473;-70
2023/10/24 03:28:51;;;;;;;7.77;7.67;;;13.00;99.90;;;;;;5021998;28;20728;-70
2023/10/24 03:31:18;;;;;;;7.73;7.63;;;13.00;99.90;;;;;;5014175;27;20467;-69
2023/10/24 03:33:46;;;;;;;8.10;8.00;;;13.00;99.90;;;;;;5022724;27;20953;-70
2023/10/24 03:36:14;;;;;;;7.93;7.83;;;13.00;99.90;;;;;;5025221;28;20822;-72
2023/10/24 03:38:41;;;;;;;7.47;7.37;;;13.00;99.90;;;;;;5019856;28;20916;-72
2023/10/24 03:41:10;;;;;;;7.77;7.67;;;13.00;99.90;;;;;;5017529;28;20472;-71
2023/10/24 03:43:39;;;;;;;7.73;7.63;;;13.00;99.90;;;;;;5021775;28;20481;-71
2023/10/24 03:46:07;;;;;;;7.87;7.77;;;12.90;99.90;;;;;;5025186;28;20478;-71
2023/10/24 03:48:34;;;;;;;7.77;7.67;;;12.90;99.90;;;;;;5024278;28;20537;-70
2023/10/24 03:51:01;;;;;;;7.40;7.30;;;12.90;99.90;;;;;;5016911;28;20463;-70
2023/10/24 03:53:28;;;;;;;7.47;7.37;;;12.90;99.90;;;;;;5025290;28;20956;-69
2023/10/24 03:55:58;;;;;;;7.47;7.37;;;12.90;99.90;;;;;;5016576;28;20485;-70
2023/10/24 03:58:27;;;;;;;7.43;7.33;;;12.80;99.90;;;;;;5026309;28;20497;-70
2023/10/24 04:00:55;;;;;;;7.53;7.43;;;12.90;99.90;;;;;;5024469;28;20594;-72
2023/10/24 04:03:22;;;;;;;7.20;7.10;;;12.90;99.90;;;;;;5020163;27;20462;-70
2023/10/24 04:05:49;;;;;;;7.40;7.30;;;12.80;99.90;;;;;;5026479;27;20472;-71
2023/10/24 04:08:16;;;;;;;6.90;6.80;;;12.70;99.90;;;;;;5015820;27;20469;-71
2023/10/24 04:10:43;;;;;;;7.33;7.23;;;12.60;99.90;;;;;;5024654;27;20549;-71
2023/10/24 04:13:10;;;;;;;7.13;7.03;;;12.50;99.90;;;;;;5022251;27;20465;-70
2023/10/24 04:15:38;;;;;;;7.00;6.90;;;12.40;99.90;;;;;;5024321;27;20465;-71
2023/10/24 04:18:04;;;;;;;6.87;6.77;;;12.30;99.90;;;;;;5027945;27;20498;-71
2023/10/24 04:20:31;;;;;;;7.07;6.97;;;12.30;99.90;;;;;;5028465;27;20460;-71
2023/10/24 04:23:03;;;;;;;6.90;6.80;;;12.20;99.90;;;;;;5025521;27;20467;-70
2023/10/24 04:25:30;;;;;;;7.13;7.03;;;12.20;99.90;;;;;;5019754;27;20723;-72
2023/10/24 04:27:58;;;;;;;6.83;6.73;;;12.20;99.90;;;;;;5020470;27;20498;-70
2023/10/24 04:30:26;;;;;;;6.33;6.23;;;12.10;99.90;;;;;;5026755;27;20985;-69
2023/10/24 04:32:55;;;;;;;6.80;6.70;;;12.10;99.90;;;;;;5027724;27;20453;-71
2023/10/24 04:35:21;;;;;;;6.67;6.57;;;12.10;99.90;;;;;;5029048;27;20460;-71
2023/10/24 04:37:48;;;;;;;7.03;6.93;;;12.00;99.90;;;;;;5021487;27;20496;-69
2023/10/24 04:40:16;;;;;;;6.73;6.63;;;12.00;99.90;;;;;;5018785;27;20886;-73
2023/10/24 04:42:43;;;;;;;6.97;6.87;;;11.90;99.90;;;;;;5027564;27;20453;-71
2023/10/24 04:45:10;;;;;;;6.70;6.60;;;11.90;99.90;;;;;;5018400;27;20489;-69
2023/10/24 04:47:37;;;;;;;7.00;6.90;;;11.90;99.90;;;;;;5027062;27;20465;-69
2023/10/24 04:50:07;;;;;;;7.07;6.97;;;11.90;99.90;;;;;;5028323;27;20449;-71
2023/10/24 04:52:33;;;;;;;7.30;7.20;;;11.90;99.90;;;;;;5019246;27;20465;-70
2023/10/24 04:55:00;;;;;;;7.13;7.03;;;12.00;99.90;;;;;;5020137;27;20847;-69
2023/10/24 04:57:27;;;;;;;7.37;7.27;;;12.10;99.90;;;;;;5021372;27;20556;-72
2023/10/24 04:59:54;;;;;;;7.43;7.33;;;12.10;99.90;;;;;;5023379;27;20450;-72
2023/10/24 05:02:21;;;;;;;7.50;7.40;;;12.20;99.90;;;;;;5015847;27;20471;-69
2023/10/24 05:04:48;;;;;;;7.00;6.90;;;12.20;99.90;;;;;;5023335;27;20463;-68
2023/10/24 05:07:16;;;;;;;7.17;7.07;;;12.30;99.90;;;;;;5023731;27;20466;-68
2023/10/24 05:09:43;;;;;;;7.20;7.10;;;12.30;99.90;;;;;;5038750;27;21245;-71
2023/10/24 05:12:09;;;;;;;7.90;7.80;;;12.30;99.90;;;;;;5014871;27;20477;-70
2023/10/24 05:14:36;;;;;;;7.80;7.70;;;12.30;99.90;;;;;;5024082;27;20473;-70
2023/10/24 05:17:04;;;;;;;7.80;7.70;;;12.30;99.90;;;;;;5023825;28;20868;-70
2023/10/24 05:19:31;;;;;;;7.73;7.63;;;12.40;99.90;;;;;;5019173;27;20464;-68
2023/10/24 05:21:59;;;;;;;7.53;7.43;;;12.40;99.90;;;;;;5015562;27;20471;-70
2023/10/24 05:24:28;;;;;;;7.87;7.77;;;12.40;99.90;;;;;;5019774;27;20463;-70
2023/10/24 05:26:54;;;;;;;8.27;8.17;;;12.40;99.90;;;;;;5019685;27;20501;-70
2023/10/24 05:29:22;;;;;;;7.83;7.73;;;12.40;99.90;;;;;;5014583;27;20465;-70
2023/10/24 05:31:48;;;;;;;8.27;8.17;;;12.50;99.90;;;;;;5021983;27;21190;-71
2023/10/24 05:34:15;;;;;;;7.90;7.80;;;12.50;99.90;;;;;;5016770;27;20466;-68
2023/10/24 05:36:42;;;;;;;7.80;7.70;;;12.50;99.90;;;;;;5020704;28;20480;-71
2023/10/24 05:39:09;;;;;;;8.13;8.03;;;12.50;99.90;;;;;;5016074;28;21031;-71
2023/10/24 05:41:37;;;;;;;8.00;7.90;;;12.50;99.90;;;;;;5012638;27;20876;-71
2023/10/24 05:44:04;;;;;;;9.00;8.80;;;12.50;99.90;;;;;;5017700;27;20462;-70
2023/10/24 05:46:31;;;;;;;8.40;8.30;;;12.50;99.90;;;;;;5020823;27;20458;-71
2023/10/24 05:48:58;;;;;;;8.40;8.30;;;12.50;99.90;;;;;;5018644;27;20457;-71
2023/10/24 05:51:29;;;;;;;8.47;8.37;;;12.50;99.90;;;;;;5018977;27;20466;-72
2023/10/24 05:53:56;;;;;;;8.17;8.07;;;12.50;99.90;;;;;;5013486;27;20980;-71
2023/10/24 05:56:24;;;;;;;8.20;8.10;;;12.50;99.90;;;;;;5018822;27;20461;-71
2023/10/24 05:58:52;;;;;;;8.20;8.10;;;12.50;99.90;;;;;;5011342;27;20586;-71
2023/10/24 06:01:20;;;;;;;9.07;8.87;;;12.50;99.90;;;;;;5019713;27;20889;-70
2023/10/24 06:03:48;;;;;;;8.73;8.63;;;12.60;99.90;;;;;;5021722;28;20462;-70
2023/10/24 06:06:15;;;;;;;8.63;8.53;;;12.50;99.90;;;;;;5018086;27;20462;-70
2023/10/24 06:08:43;;;;;;;8.73;8.63;;;12.50;99.90;;;;;;5028401;27;20466;-72
2023/10/24 06:11:10;;;;;;;8.60;8.50;;;12.50;99.90;;;;;;5010529;27;20967;-70
2023/10/24 06:13:36;;;;;;;8.63;8.53;;;12.60;99.90;;;;;;5021356;27;20555;-71
2023/10/24 06:16:09;;;;;;;9.10;8.90;;;12.60;99.90;;;;;;5016099;27;20822;-69
2023/10/24 06:18:36;;;;;;;8.33;8.23;;;12.60;99.90;;;;;;5012418;28;20508;-72
2023/10/24 06:21:04;;;;;;;8.33;8.23;;;12.60;99.90;;;;;;5014020;27;20461;-70
2023/10/24 06:23:31;;;;;;;8.80;8.70;;;12.60;99.90;;;;;;5011004;27;20458;-69
2023/10/24 06:25:59;;;;;;;8.40;8.30;;;12.60;99.90;;;;;;5014065;27;20468;-71
2023/10/24 06:28:26;;;;;;;8.87;8.73;;;12.60;99.90;;;;;;5014371;27;20561;-68
2023/10/24 06:30:58;;;;;;;8.97;8.77;;;12.60;99.90;;;;;;5011695;27;20645;-70
2023/10/24 06:33:27;;;;;;;9.43;9.23;;;12.60;99.90;;;;;;5013796;27;20462;-69
2023/10/24 06:35:55;;;;;;;9.60;9.40;;;12.60;99.90;;;;;;5016094;28;20458;-69
2023/10/24 06:38:22;;;;;;;9.70;9.50;;;12.60;99.90;;;;;;5007093;28;20489;-70
2023/10/24 06:40:49;;;;;;;9.60;9.40;;;12.60;99.90;;;;;;5014393;27;20467;-70
2023/10/24 06:43:16;;;;;;;10.23;10.03;;;12.60;99.90;;;;;;5013726;27;20475;-71
2023/10/24 06:45:43;;;;;;;10.57;10.37;;;12.70;99.90;;;;;;5011090;27;20504;-71
2023/10/24 06:48:11;;;;;;;10.50;10.30;;;12.70;99.90;;;;;;5012743;28;20469;-71
2023/10/24 06:50:40;;;;;;;10.40;10.20;;;12.70;99.90;;;;;;5012188;28;20471;-71
2023/10/24 06:53:07;;;;;;;11.20;10.90;;;12.70;99.90;;;;;;5012455;27;20474;-70
2023/10/24 06:55:34;;;;;;;11.07;10.77;;;12.70;99.90;;;;;;5010736;28;20462;-70
2023/10/24 06:58:03;;;;;;;10.50;10.30;;;12.70;99.90;;;;;;5009954;28;20505;-70
2023/10/24 07:00:30;;;;;;;10.00;9.80;;;12.80;99.90;;;;;;5013598;27;20457;-72
2023/10/24 07:02:56;;;;;;;10.30;10.10;;;12.80;99.90;;;;;;5015044;28;21242;-70
2023/10/24 07:05:24;;;;;;;10.03;9.83;;;12.90;99.90;;;;;;5014865;28;20461;-71
2023/10/24 07:07:52;;;;;;;10.93;10.63;;;12.80;99.90;;;;;;5010614;28;20472;-71
2023/10/24 07:10:20;;;;;;;10.63;10.43;;;12.80;99.90;;;;;;5015502;28;20771;-71
2023/10/24 07:12:47;;;;;;;11.03;10.73;;;12.90;99.90;;;;;;5010518;27;20465;-70
2023/10/24 07:15:15;;;;;;;11.50;11.20;;;12.90;99.90;;;;;;5013163;28;21138;-71
2023/10/24 07:17:42;;;;;;;11.30;11.00;;;12.90;99.90;;;;;;5013850;27;20915;-71
2023/10/24 07:20:10;;;;;;;10.70;10.50;;;13.00;99.90;;;;;;5012163;28;20465;-71
2023/10/24 07:22:36;;;;;;;11.10;10.80;;;13.10;99.90;;;;;;5011438;27;21414;-70
2023/10/24 07:25:05;;;;;;;10.80;10.50;;;13.10;99.90;;;;;;5011378;28;20832;-72
2023/10/24 07:27:32;;;;;;;11.83;11.53;;;13.10;99.90;;;;;;5014174;27;20469;-71
2023/10/24 07:30:00;;;;;;;11.70;11.40;;;12.90;99.90;;;;;;5012277;27;20473;-70
2023/10/24 07:32:27;;;;;;;11.70;11.40;;;13.10;99.90;;;;;;5014183;28;20995;-71
2023/10/24 07:34:56;;;;;;;11.20;10.90;;;13.20;99.90;;;;;;5011632;28;20458;-72
2023/10/24 07:37:24;;;;;;;11.53;11.23;;;13.20;99.90;;;;;;5014465;28;20530;-71
2023/10/24 07:39:51;;;;;;;11.63;11.33;;;13.20;99.90;;;;;;5012032;28;20524;-72
2023/10/24 07:42:21;;;;;;;11.20;10.90;;;13.20;99.90;;;;;;5008359;28;20481;-71
2023/10/24 07:44:47;;;;;;;11.33;11.03;;;13.10;99.90;;;;;;5013890;28;20488;-72
2023/10/24 07:47:14;;;;;;;11.20;10.90;;;13.20;99.90;;;;;;5012739;28;20473;-71
2023/10/24 07:49:41;;;;;;;11.37;11.07;;;13.30;99.90;;;;;;5011860;28;20461;-73
2023/10/24 07:52:07;;;;;;;11.70;11.40;;;13.30;99.90;;;;;;5009932;28;20494;-70
2023/10/24 07:54:35;;;;;;;11.73;11.43;;;13.30;99.90;;;;;;5008884;28;20462;-73
2023/10/24 07:57:02;;;;;;;11.40;11.10;;;13.30;99.90;;;;;;5011446;28;20473;-70
2023/10/24 07:59:31;;;;;;;11.67;11.37;;;13.40;99.90;;;;;;5013243;28;20501;-70
2023/10/24 08:01:59;;;;;;;11.53;11.23;;;13.50;99.90;;;;;;5008511;28;20489;-72
2023/10/24 08:04:26;;;;;;;11.30;11.00;;;13.50;99.90;;;;;;5015248;28;20463;-70
2023/10/24 08:06:53;;;;;;;11.10;10.80;;;13.50;99.90;;;;;;5009331;28;20959;-72
2023/10/24 08:09:21;;;;;;;11.70;11.40;;;13.50;99.90;;;;;;5013423;28;20492;-72
2023/10/24 08:11:47;;;;;;;11.37;11.07;;;13.50;99.90;;;;;;5008186;28;20790;-70
2023/10/24 08:14:15;;;;;;;10.80;10.50;;;13.60;99.90;;;;;;5009604;28;20480;-71
2023/10/24 08:16:43;;;;;;;11.40;11.10;;;13.70;99.90;;;;;;5011234;28;20465;-70
2023/10/24 08:19:10;;;;;;;11.33;11.03;;;13.70;99.90;;;;;;5011661;28;20501;-71
2023/10/24 08:21:37;;;;;;;11.60;11.30;;;13.70;99.90;;;;;;5012663;28;20466;-72
2023/10/24 08:24:04;;;;;;;11.73;11.43;;;13.70;99.90;;;;;;5012336;28;20518;-72
2023/10/24 08:26:32;;;;;;;11.63;11.33;;;13.70;99.90;;;;;;5010077;28;20863;-70
2023/10/24 08:28:59;;;;;;;11.20;10.90;;;13.80;99.90;;;;;;5000236;28;20462;-70
2023/10/24 08:31:25;;;;;;;11.63;11.33;;;13.90;99.90;;;;;;5003115;28;20460;-69
2023/10/24 08:33:53;;;;;;;11.40;11.10;;;13.90;99.90;;;;;;5011750;28;20470;-70
2023/10/24 08:36:20;;;;;;;12.13;11.83;;;13.90;99.90;;;;;;5008415;28;20477;-72
2023/10/24 08:38:47;;;;;;;12.30;12.00;;;14.00;99.90;;;;;;5010594;28;20594;-71
2023/10/24 08:41:14;;;;;;;11.77;11.47;;;14.00;99.90;;;;;;5015169;28;20462;-70
2023/10/24 08:43:42;;;;;;;11.50;11.20;;;14.10;99.90;;;;;;5010597;28;20469;-70
2023/10/24 08:46:11;;;;;;;11.70;11.40;;;14.30;99.90;;;;;;5012933;27;20499;-70
2023/10/24 08:48:38;;;;;;;11.63;11.33;;;14.40;99.90;;;;;;5014434;28;21199;-70
2023/10/24 08:51:06;;;;;;;11.43;11.13;;;14.50;99.90;;;;;;5015329;27;20469;-70
2023/10/24 08:53:33;;;;;;;12.03;11.73;;;14.60;99.90;;;;;;5014837;27;20474;-71
2023/10/24 08:56:03;;;;;;;11.87;11.57;;;14.70;99.90;;;;;;5014566;27;20470;-70
2023/10/24 08:58:32;;;;;;;11.97;11.67;;;14.90;99.90;;;;;;5011098;28;20571;-69
2023/10/24 09:01:00;;;;;;;12.13;11.83;;;15.00;99.90;;;;;;5011116;27;20478;-71
2023/10/24 09:03:28;;;;;;;12.67;12.27;;;15.10;99.90;;;;;;5014616;27;20473;-70
2023/10/24 09:05:56;;;;;;;11.77;11.47;;;15.10;99.90;;;;;;5016412;27;20470;-71
2023/10/24 09:08:25;;;;;;;12.43;12.03;;;15.10;99.90;;;;;;5011862;27;20850;-72
2023/10/24 09:10:54;;;;;;;12.03;11.73;;;15.20;99.90;;;;;;5015763;27;20480;-70
2023/10/24 09:13:21;;;;;;;12.00;11.70;;;15.20;99.90;;;;;;5015450;27;20927;-70
2023/10/24 09:16:05;;;;;;;12.10;11.80;;;15.20;99.90;;;;;;5015328;27;20474;-71
2023/10/24 09:18:36;;;;;;;12.70;12.30;;;15.30;99.90;;;;;;5015209;27;20545;-70
2023/10/24 09:21:03;;;;;;;12.00;11.70;;;15.40;99.90;;;;;;5010217;27;20547;-70
2023/10/24 09:23:35;;;;;;;12.57;12.17;;;15.40;99.90;;;;;;5015945;27;20462;-71
2023/10/24 09:26:03;;;;;;;13.10;12.70;;;15.50;99.90;;;;;;5013699;28;20498;-71
2023/10/24 09:28:30;;;;;;;13.10;12.70;;;15.60;99.90;;;;;;5013630;28;20456;-71
2023/10/24 09:30:58;;;;;;;12.93;12.53;;;15.70;99.90;;;;;;5012724;27;20471;-72
2023/10/24 09:33:26;;;;;;;12.67;12.27;;;15.70;99.90;;;;;;5015402;28;20458;-70
2023/10/24 09:35:54;;;;;;;12.60;12.20;;;15.70;99.90;;;;;;5011502;27;20551;-71
2023/10/24 09:38:22;;;;;;;13.07;12.67;;;15.70;99.90;;;;;;5015617;27;20499;-71
2023/10/24 09:40:51;;;;;;;12.90;12.50;;;15.60;99.90;;;;;;5014390;27;20463;-70
2023/10/24 09:43:22;;;;;;;12.47;12.07;;;15.60;99.90;;;;;;5016080;27;20595;-71
2023/10/24 09:45:51;;;;;;;12.27;11.97;;;15.40;99.90;;;;;;5010724;27;21008;-70
2023/10/24 09:48:19;;;;;;;12.20;11.87;;;15.50;99.90;;;;;;5012797;27;20882;-71
2023/10/24 09:50:47;;;;;;;12.10;11.80;;;15.50;99.90;;;;;;5015115;27;20520;-70
2023/10/24 09:53:14;;;;;;;12.30;12.00;;;15.50;99.90;;;;;;5017505;27;20863;-72
2023/10/24 09:55:48;;;;;;;12.50;12.10;;;15.50;99.90;;;;;;5015439;28;20471;-72
2023/10/24 09:58:18;;;;;;;12.83;12.43;;;15.40;99.90;;;;;;5010332;27;20562;-71
2023/10/24 10:00:46;;;;;;;12.50;12.13;;;15.50;99.90;;;;;;5015666;28;20499;-72
2023/10/24 10:03:14;;;;;;;12.87;12.47;;;15.40;99.90;;;;;;5012901;27;20476;-71
2023/10/24 10:05:41;;;;;;;13.00;12.60;;;15.60;99.90;;;;;;5016543;27;20474;-72
2023/10/24 10:08:09;;;;;;;12.43;12.03;;;15.70;99.90;;;;;;5010402;27;21074;-70
2023/10/24 10:10:38;;;;;;;12.70;12.30;;;15.80;99.90;;;;;;5019888;27;20874;-73
2023/10/24 10:13:08;;;;;;;13.03;12.63;;;15.90;99.90;;;;;;5014615;27;20463;-73
2023/10/24 10:15:56;;;;;;;12.70;12.30;;;15.90;99.90;;;;;;5014492;27;20471;-71
2023/10/24 10:18:39;;;;;;;12.73;12.33;;;16.10;99.90;;;;;;5014397;27;20484;-71
2023/10/24 10:21:12;;;;;;;12.90;12.50;;;16.20;99.90;;;;;;5011186;27;20466;-71
2023/10/24 10:24:09;;;;;;;13.10;12.70;;;16.30;99.90;;;;;;5014542;27;20560;-72
2023/10/24 10:26:57;;;;;;;12.73;12.33;;;16.40;99.90;;;;;;5017417;28;21064;-72
2023/10/24 10:29:41;;;;;;;12.03;11.73;;;16.30;99.90;;;;;;5015030;27;20461;-70
2023/10/24 10:32:20;;;;;;;12.10;11.80;;;16.40;99.90;;;;;;5015875;28;20878;-71
2023/10/24 10:34:47;;;;;;;13.10;12.70;;;16.40;99.90;;;;;;5012338;27;20472;-72
2023/10/24 10:37:13;;;;;;;12.63;12.30;;;16.40;99.90;;;;;;5010721;27;20955;-72
2023/10/24 10:39:40;;;;;;;12.87;12.47;;;16.40;99.90;;;;;;5014823;27;20500;-69
2023/10/24 10:42:27;;;;;;;12.90;12.50;;;16.40;99.90;;;;;;5014788;27;20549;-73
2023/10/24 10:44:55;;;;;;;12.80;12.40;;;16.40;99.90;;;;;;5016753;27;20494;-73
2023/10/24 10:47:27;;;;;;;12.57;12.20;;;16.50;99.90;;;;;;5011732;27;20505;-72
2023/10/24 10:49:56;;;;;;;12.83;12.43;;;16.50;99.90;;;;;;5013383;27;20497;-73
2023/10/24 10:52:38;;;;;;;12.50;12.20;;;16.50;99.90;;;;;;5015867;28;20564;-72
2023/10/24 10:55:28;;;;;;;12.90;12.50;;;16.60;99.90;;;;;;5013157;27;20463;-72
2023/10/24 10:58:12;;;;;;;12.83;12.43;;;16.60;99.90;;;;;;5016110;27;20476;-73
2023/10/24 11:00:58;;;;;;;12.70;12.30;;;16.60;99.90;;;;;;5011736;27;20512;-72
2023/10/24 11:03:41;;;;;;;12.97;12.57;;;16.60;99.90;;;;;;5014571;27;20457;-74
2023/10/24 11:06:15;;;;;;;13.20;12.80;;;16.20;99.90;;;;;;5012160;27;20474;-73
2023/10/24 11:08:49;;;;;;;13.50;13.10;;;15.90;99.90;;;;;;5012356;28;20478;-73
2023/10/24 11:11:19;;;;;;;12.70;12.30;;;15.80;99.90;;;;;;5017662;27;20511;-72
2023/10/24 11:13:48;;;;;;;12.80;12.40;;;15.80;99.90;;;;;;5015667;27;20470;-72
2023/10/24 11:16:15;;;;;;;12.80;12.40;;;15.80;99.90;;;;;;5008058;27;20471;-73
2023/10/24 11:18:45;;;;;;;12.70;12.30;;;15.60;99.90;;;;;;5010858;27;21162;-72
2023/10/24 11:21:12;;;;;;;14.67;14.17;;;15.50;99.90;;;;;;5014709;27;20554;-71
2023/10/24 11:23:42;;;;;;;16.03;15.33;;;15.20;99.90;;;;;;5014285;27;20919;-71
2023/10/24 11:26:09;;;;;;;17.50;16.70;;;15.10;99.90;;;;;;5012971;27;20473;-70
2023/10/24 11:28:36;;;;;;;19.20;18.10;;;15.10;99.90;;;;;;5013043;28;20464;-70
2023/10/24 11:31:19;;;;;;;17.87;16.90;;;15.00;99.90;;;;;;5012478;27;20706;-72
2023/10/24 11:33:48;;;;;;;17.80;16.90;;;14.80;99.90;;;;;;5007571;28;20557;-72
2023/10/24 11:36:15;;;;;;;16.77;15.97;;;14.40;99.90;;;;;;5012155;27;20563;-71
2023/10/24 11:38:43;;;;;;;15.40;14.70;;;14.20;99.90;;;;;;5013864;28;20489;-73
2023/10/24 11:41:09;;;;;;;14.57;13.97;;;14.10;99.90;;;;;;5011279;28;20477;-71
2023/10/24 11:43:37;;;;;;;14.10;13.60;;;13.90;99.90;;;;;;5012828;28;20508;-72
2023/10/24 11:46:03;;;;;;;13.00;12.60;;;13.80;99.90;;;;;;5013688;27;20485;-73
2023/10/24 11:48:30;;;;;;;12.93;12.53;;;13.80;99.90;;;;;;5006224;28;20467;-72
2023/10/24 11:51:03;;;;;;;12.67;12.27;;;13.70;99.90;;;;;;5012588;28;20477;-71
2023/10/24 11:53:30;;;;;;;12.97;12.57;;;13.60;99.90;;;;;;5015174;28;20535;-71
2023/10/24 11:55:57;;;;;;;12.97;12.57;;;13.50;99.90;;;;;;5012742;28;20540;-73
2023/10/24 11:58:31;;;;;;;12.23;11.93;;;13.30;99.90;;;;;;5012116;28;20515;-73
2023/10/24 12:00:58;;;;;;;11.60;11.30;;;13.30;99.90;;;;;;5012172;28;20970;-71
2023/10/24 12:03:25;;;;;;;11.27;10.97;;;13.30;99.90;;;;;;5014294;28;20469;-71
2023/10/24 12:05:54;;;;;;;11.37;11.07;;;13.30;99.90;;;;;;5010622;28;20470;-72
2023/10/24 12:08:27;;;;;;;10.60;10.40;;;13.10;99.90;;;;;;5004869;28;20476;-73
2023/10/24 12:10:55;;;;;;;10.20;10.00;;;13.00;99.90;;;;;;5015890;28;20464;-72
2023/10/24 12:13:23;;;;;;;9.90;9.70;;;13.00;99.90;;;;;;5010298;28;20799;-71
2023/10/24 12:15:50;;;;;;;9.37;9.17;;;12.70;99.90;;;;;;5009615;28;20477;-72
2023/10/24 12:18:17;;;;;;;10.00;9.80;;;12.70;99.90;;;;;;5011070;28;20458;-72
2023/10/24 12:20:44;;;;;;;9.80;9.60;;;12.80;99.90;;;;;;5011755;27;20866;-73
2023/10/24 12:23:11;;;;;;;9.77;9.57;;;12.80;99.90;;;;;;5013894;27;20515;-72
2023/10/24 12:25:40;;;;;;;9.30;9.10;;;12.90;99.90;;;;;;5013439;28;20472;-73
2023/10/24 12:28:07;;;;;;;10.00;9.80;;;12.80;99.90;;;;;;5017834;27;20481;-71
2023/10/24 12:30:35;;;;;;;9.70;9.50;;;12.60;99.90;;;;;;5017909;27;20457;-72
2023/10/24 12:33:02;;;;;;;9.20;9.00;;;12.50;99.90;;;;;;5015456;27;20472;-72
2023/10/24 12:35:31;;;;;;;9.80;9.60;;;12.60;99.90;;;;;;5016320;27;20840;-72
2023/10/24 12:37:58;;;;;;;9.77;9.57;;;12.60;99.90;;;;;;5010787;28;22277;-72
2023/10/24 12:40:25;;;;;;;9.87;9.67;;;12.60;99.90;;;;;;5011485;28;20871;-72
2023/10/24 12:42:53;;;;;;;10.17;9.97;;;12.60;99.90;;;;;;5016359;27;20466;-71
2023/10/24 12:45:21;;;;;;;10.60;10.40;;;12.60;99.90;;;;;;5018905;27;20894;-72